sensor_id;sensor_type;location;lat;lon;timestamp;P1;durP1;ratioP1;P2;durP2;ratioP2
60352;SDS011;46196;52.970;6.954;2023-04-01T00:00:55;13.85;;;7.30;;
60352;SDS011;46196;52.970;6.954;2023-04-01T00:03:23;13.82;;;7.07;;
60352;SDS011;46196;52.970;6.954;2023-04-01T00:05:50;13.68;;;7.35;;
60352;SDS011;46196;52.970;6.954;2023-04-01T00:08:16;21.98;;;11.23;;
60352;SDS011;46196;52.970;6.954;2023-04-01T00:10:42;17.20;;;8.10;;
60352;SDS011;46196;52.970;6.954;2023-04-01T00:13:08;19.17;;;8.80;;
60352;SDS011;46196;52.970;6.954;2023-04-01T00:15:34;16.33;;;7.35;;
60352;SDS011;46196;52.970;6.954;2023-04-01T00:18:00;19.00;;;7.70;;
60352;SDS011;46196;52.970;6.954;2023-04-01T00:20:26;13.18;;;7.13;;
60352;SDS011;46196;52.970;6.954;2023-04-01T00:22:53;14.35;;;7.50;;
60352;SDS011;46196;52.970;6.954;2023-04-01T00:25:18;15.40;;;7.68;;
60352;SDS011;46196;52.970;6.954;2023-04-01T00:27:44;14.40;;;7.28;;
60352;SDS011;46196;52.970;6.954;2023-04-01T00:30:10;13.68;;;7.20;;
60352;SDS011;46196;52.970;6.954;2023-04-01T00:32:36;16.27;;;7.68;;
60352;SDS011;46196;52.970;6.954;2023-04-01T00:35:03;17.27;;;8.70;;
60352;SDS011;46196;52.970;6.954;2023-04-01T00:37:29;14.55;;;7.15;;
60352;SDS011;46196;52.970;6.954;2023-04-01T00:39:55;13.82;;;7.60;;
60352;SDS011;46196;52.970;6.954;2023-04-01T00:42:22;19.08;;;7.32;;
60352;SDS011;46196;52.970;6.954;2023-04-01T00:44:50;15.68;;;7.80;;
60352;SDS011;46196;52.970;6.954;2023-04-01T00:49:45;15.05;;;7.43;;
60352;SDS011;46196;52.970;6.954;2023-04-01T00:54:41;15.93;;;7.60;;
60352;SDS011;46196;52.970;6.954;2023-04-01T00:57:15;17.08;;;8.15;;
60352;SDS011;46196;52.970;6.954;2023-04-01T00:59:54;21.15;;;8.38;;
60352;SDS011;46196;52.970;6.954;2023-04-01T01:02:21;16.38;;;8.25;;
60352;SDS011;46196;52.970;6.954;2023-04-01T01:04:47;16.15;;;7.93;;
60352;SDS011;46196;52.970;6.954;2023-04-01T01:07:32;17.23;;;8.13;;
60352;SDS011;46196;52.970;6.954;2023-04-01T01:10:04;15.40;;;7.35;;
60352;SDS011;46196;52.970;6.954;2023-04-01T01:15:32;18.50;;;9.27;;
60352;SDS011;46196;52.970;6.954;2023-04-01T01:32:03;14.68;;;6.75;;
60352;SDS011;46196;52.970;6.954;2023-04-01T01:37:54;15.68;;;8.43;;
60352;SDS011;46196;52.970;6.954;2023-04-01T01:40:24;16.67;;;7.40;;
60352;SDS011;46196;52.970;6.954;2023-04-01T01:42:53;18.52;;;6.93;;
60352;SDS011;46196;52.970;6.954;2023-04-01T01:45:23;17.50;;;7.30;;
60352;SDS011;46196;52.970;6.954;2023-04-01T01:47:51;14.55;;;6.78;;
60352;SDS011;46196;52.970;6.954;2023-04-01T01:50:17;13.45;;;7.00;;
60352;SDS011;46196;52.970;6.954;2023-04-01T01:52:45;18.13;;;7.72;;
60352;SDS011;46196;52.970;6.954;2023-04-01T01:55:24;14.75;;;6.65;;
60352;SDS011;46196;52.970;6.954;2023-04-01T01:58:00;12.65;;;6.90;;
60352;SDS011;46196;52.970;6.954;2023-04-01T02:00:51;13.10;;;7.20;;
60352;SDS011;46196;52.970;6.954;2023-04-01T02:03:21;16.52;;;7.68;;
60352;SDS011;46196;52.970;6.954;2023-04-01T02:05:50;16.17;;;7.82;;
60352;SDS011;46196;52.970;6.954;2023-04-01T02:08:19;17.85;;;7.88;;
60352;SDS011;46196;52.970;6.954;2023-04-01T02:10:55;15.70;;;7.85;;
60352;SDS011;46196;52.970;6.954;2023-04-01T02:13:27;16.85;;;8.02;;
60352;SDS011;46196;52.970;6.954;2023-04-01T02:16:06;18.55;;;8.38;;
60352;SDS011;46196;52.970;6.954;2023-04-01T02:18:38;19.88;;;8.43;;
60352;SDS011;46196;52.970;6.954;2023-04-01T02:21:06;17.02;;;8.38;;
60352;SDS011;46196;52.970;6.954;2023-04-01T02:23:34;18.00;;;8.20;;
60352;SDS011;46196;52.970;6.954;2023-04-01T02:26:01;17.48;;;7.20;;
60352;SDS011;46196;52.970;6.954;2023-04-01T02:28:29;16.15;;;7.85;;
60352;SDS011;46196;52.970;6.954;2023-04-01T02:30:58;13.70;;;7.28;;
60352;SDS011;46196;52.970;6.954;2023-04-01T02:33:25;16.55;;;7.95;;
60352;SDS011;46196;52.970;6.954;2023-04-01T02:35:53;14.23;;;7.15;;
60352;SDS011;46196;52.970;6.954;2023-04-01T02:38:19;15.68;;;7.70;;
60352;SDS011;46196;52.970;6.954;2023-04-01T02:40:46;14.32;;;7.28;;
60352;SDS011;46196;52.970;6.954;2023-04-01T02:43:14;14.32;;;6.93;;
60352;SDS011;46196;52.970;6.954;2023-04-01T02:45:41;13.45;;;6.00;;
60352;SDS011;46196;52.970;6.954;2023-04-01T02:48:07;12.70;;;6.28;;
60352;SDS011;46196;52.970;6.954;2023-04-01T02:50:33;14.27;;;6.82;;
60352;SDS011;46196;52.970;6.954;2023-04-01T02:53:00;13.32;;;7.22;;
60352;SDS011;46196;52.970;6.954;2023-04-01T02:55:28;18.38;;;8.27;;
60352;SDS011;46196;52.970;6.954;2023-04-01T02:57:55;16.05;;;7.80;;
60352;SDS011;46196;52.970;6.954;2023-04-01T03:00:21;18.15;;;8.23;;
60352;SDS011;46196;52.970;6.954;2023-04-01T03:02:47;19.23;;;7.93;;
60352;SDS011;46196;52.970;6.954;2023-04-01T03:05:13;18.20;;;8.50;;
60352;SDS011;46196;52.970;6.954;2023-04-01T03:07:39;16.27;;;7.90;;
60352;SDS011;46196;52.970;6.954;2023-04-01T03:10:05;16.73;;;8.27;;
60352;SDS011;46196;52.970;6.954;2023-04-01T03:12:32;16.10;;;8.00;;
60352;SDS011;46196;52.970;6.954;2023-04-01T03:14:58;15.65;;;8.25;;
60352;SDS011;46196;52.970;6.954;2023-04-01T03:17:23;18.02;;;8.38;;
60352;SDS011;46196;52.970;6.954;2023-04-01T03:19:49;17.27;;;7.65;;
60352;SDS011;46196;52.970;6.954;2023-04-01T03:22:15;19.35;;;8.40;;
60352;SDS011;46196;52.970;6.954;2023-04-01T03:24:41;18.13;;;8.68;;
60352;SDS011;46196;52.970;6.954;2023-04-01T03:27:06;21.05;;;9.20;;
60352;SDS011;46196;52.970;6.954;2023-04-01T03:29:32;17.17;;;8.25;;
60352;SDS011;46196;52.970;6.954;2023-04-01T03:31:58;18.92;;;9.05;;
60352;SDS011;46196;52.970;6.954;2023-04-01T03:34:25;16.20;;;8.27;;
60352;SDS011;46196;52.970;6.954;2023-04-01T03:36:51;24.70;;;9.43;;
60352;SDS011;46196;52.970;6.954;2023-04-01T03:39:17;19.83;;;9.40;;
60352;SDS011;46196;52.970;6.954;2023-04-01T03:41:46;23.95;;;8.93;;
60352;SDS011;46196;52.970;6.954;2023-04-01T03:44:12;20.98;;;10.10;;
60352;SDS011;46196;52.970;6.954;2023-04-01T03:46:38;21.50;;;9.68;;
60352;SDS011;46196;52.970;6.954;2023-04-01T03:49:07;17.35;;;9.75;;
60352;SDS011;46196;52.970;6.954;2023-04-01T03:51:40;20.92;;;10.10;;
60352;SDS011;46196;52.970;6.954;2023-04-01T03:54:07;19.05;;;9.27;;
60352;SDS011;46196;52.970;6.954;2023-04-01T03:56:33;26.77;;;10.40;;
60352;SDS011;46196;52.970;6.954;2023-04-01T03:59:01;23.15;;;10.32;;
60352;SDS011;46196;52.970;6.954;2023-04-01T04:01:28;23.27;;;10.90;;
60352;SDS011;46196;52.970;6.954;2023-04-01T04:03:54;23.42;;;10.15;;
60352;SDS011;46196;52.970;6.954;2023-04-01T04:06:21;24.95;;;10.60;;
60352;SDS011;46196;52.970;6.954;2023-04-01T04:08:48;24.38;;;10.48;;
60352;SDS011;46196;52.970;6.954;2023-04-01T04:11:14;27.45;;;12.50;;
60352;SDS011;46196;52.970;6.954;2023-04-01T04:13:41;26.92;;;11.95;;
60352;SDS011;46196;52.970;6.954;2023-04-01T04:16:08;27.92;;;11.48;;
60352;SDS011;46196;52.970;6.954;2023-04-01T04:18:35;27.20;;;11.27;;
60352;SDS011;46196;52.970;6.954;2023-04-01T04:21:01;24.15;;;11.63;;
60352;SDS011;46196;52.970;6.954;2023-04-01T04:23:28;29.25;;;11.57;;
60352;SDS011;46196;52.970;6.954;2023-04-01T04:26:01;26.10;;;11.80;;
60352;SDS011;46196;52.970;6.954;2023-04-01T04:28:29;25.88;;;11.05;;
60352;SDS011;46196;52.970;6.954;2023-04-01T04:30:55;26.17;;;11.50;;
60352;SDS011;46196;52.970;6.954;2023-04-01T04:33:21;25.98;;;11.43;;
60352;SDS011;46196;52.970;6.954;2023-04-01T04:35:48;25.90;;;11.13;;
60352;SDS011;46196;52.970;6.954;2023-04-01T04:38:14;26.88;;;10.93;;
60352;SDS011;46196;52.970;6.954;2023-04-01T04:40:41;26.83;;;11.05;;
60352;SDS011;46196;52.970;6.954;2023-04-01T04:43:09;23.42;;;10.40;;
60352;SDS011;46196;52.970;6.954;2023-04-01T04:45:42;26.90;;;10.93;;
60352;SDS011;46196;52.970;6.954;2023-04-01T04:48:08;23.35;;;10.00;;
60352;SDS011;46196;52.970;6.954;2023-04-01T04:50:35;19.80;;;9.65;;
60352;SDS011;46196;52.970;6.954;2023-04-01T04:53:01;21.83;;;9.48;;
60352;SDS011;46196;52.970;6.954;2023-04-01T04:55:28;20.20;;;8.95;;
60352;SDS011;46196;52.970;6.954;2023-04-01T04:57:53;17.25;;;7.53;;
60352;SDS011;46196;52.970;6.954;2023-04-01T05:00:19;20.90;;;8.50;;
60352;SDS011;46196;52.970;6.954;2023-04-01T05:02:45;21.27;;;9.38;;
60352;SDS011;46196;52.970;6.954;2023-04-01T05:05:11;20.25;;;8.45;;
60352;SDS011;46196;52.970;6.954;2023-04-01T05:07:37;17.92;;;8.05;;
60352;SDS011;46196;52.970;6.954;2023-04-01T05:10:05;17.77;;;8.38;;
60352;SDS011;46196;52.970;6.954;2023-04-01T05:12:31;20.30;;;9.13;;
60352;SDS011;46196;52.970;6.954;2023-04-01T05:15:01;18.10;;;8.57;;
60352;SDS011;46196;52.970;6.954;2023-04-01T05:17:28;19.38;;;8.52;;
60352;SDS011;46196;52.970;6.954;2023-04-01T05:19:54;23.83;;;9.75;;
60352;SDS011;46196;52.970;6.954;2023-04-01T05:22:20;21.75;;;9.10;;
60352;SDS011;46196;52.970;6.954;2023-04-01T05:24:46;25.15;;;9.15;;
60352;SDS011;46196;52.970;6.954;2023-04-01T05:27:11;25.27;;;10.18;;
60352;SDS011;46196;52.970;6.954;2023-04-01T05:29:37;21.52;;;9.63;;
60352;SDS011;46196;52.970;6.954;2023-04-01T05:32:03;26.85;;;10.63;;
60352;SDS011;46196;52.970;6.954;2023-04-01T05:34:29;24.35;;;11.73;;
60352;SDS011;46196;52.970;6.954;2023-04-01T05:36:55;32.03;;;13.23;;
60352;SDS011;46196;52.970;6.954;2023-04-01T05:39:21;31.10;;;12.93;;
60352;SDS011;46196;52.970;6.954;2023-04-01T05:41:46;32.90;;;11.50;;
60352;SDS011;46196;52.970;6.954;2023-04-01T05:44:12;26.98;;;12.50;;
60352;SDS011;46196;52.970;6.954;2023-04-01T05:46:38;28.42;;;11.48;;
60352;SDS011;46196;52.970;6.954;2023-04-01T05:49:04;32.10;;;12.63;;
60352;SDS011;46196;52.970;6.954;2023-04-01T05:51:30;28.95;;;12.82;;
60352;SDS011;46196;52.970;6.954;2023-04-01T05:53:56;32.08;;;12.73;;
60352;SDS011;46196;52.970;6.954;2023-04-01T05:56:22;32.17;;;13.32;;
60352;SDS011;46196;52.970;6.954;2023-04-01T05:58:50;32.53;;;12.95;;
60352;SDS011;46196;52.970;6.954;2023-04-01T06:01:18;32.38;;;13.85;;
60352;SDS011;46196;52.970;6.954;2023-04-01T06:03:44;31.52;;;12.80;;
60352;SDS011;46196;52.970;6.954;2023-04-01T06:06:23;28.48;;;12.30;;
60352;SDS011;46196;52.970;6.954;2023-04-01T06:08:52;30.38;;;12.00;;
60352;SDS011;46196;52.970;6.954;2023-04-01T06:11:26;31.25;;;12.68;;
60352;SDS011;46196;52.970;6.954;2023-04-01T06:16:36;32.35;;;11.38;;
60352;SDS011;46196;52.970;6.954;2023-04-01T06:22:12;31.67;;;12.00;;
60352;SDS011;46196;52.970;6.954;2023-04-01T06:52:50;43.55;;;15.70;;
60352;SDS011;46196;52.970;6.954;2023-04-01T06:55:46;41.85;;;14.90;;
60352;SDS011;46196;52.970;6.954;2023-04-01T06:58:25;37.90;;;14.50;;
60352;SDS011;46196;52.970;6.954;2023-04-01T07:01:00;35.22;;;13.15;;
60352;SDS011;46196;52.970;6.954;2023-04-01T07:03:34;35.80;;;13.98;;
60352;SDS011;46196;52.970;6.954;2023-04-01T07:06:05;38.15;;;13.88;;
60352;SDS011;46196;52.970;6.954;2023-04-01T07:08:37;38.30;;;14.57;;
60352;SDS011;46196;52.970;6.954;2023-04-01T07:11:09;34.88;;;13.48;;
60352;SDS011;46196;52.970;6.954;2023-04-01T07:13:41;32.28;;;12.80;;
60352;SDS011;46196;52.970;6.954;2023-04-01T07:18:45;33.85;;;12.57;;
60352;SDS011;46196;52.970;6.954;2023-04-01T07:21:25;25.35;;;11.23;;
60352;SDS011;46196;52.970;6.954;2023-04-01T07:23:56;26.90;;;11.70;;
60352;SDS011;46196;52.970;6.954;2023-04-01T07:26:26;30.88;;;11.73;;
60352;SDS011;46196;52.970;6.954;2023-04-01T07:28:52;24.27;;;10.68;;
60352;SDS011;46196;52.970;6.954;2023-04-01T07:31:22;27.60;;;10.13;;
60352;SDS011;46196;52.970;6.954;2023-04-01T07:39:36;21.38;;;9.70;;
60352;SDS011;46196;52.970;6.954;2023-04-01T07:48:39;20.40;;;9.55;;
60352;SDS011;46196;52.970;6.954;2023-04-01T08:00:21;19.35;;;8.45;;
60352;SDS011;46196;52.970;6.954;2023-04-01T08:06:13;24.45;;;8.57;;
60352;SDS011;46196;52.970;6.954;2023-04-01T08:11:25;21.63;;;8.75;;
60352;SDS011;46196;52.970;6.954;2023-04-01T08:14:03;20.05;;;8.32;;
60352;SDS011;46196;52.970;6.954;2023-04-01T08:22:20;19.85;;;8.55;;
60352;SDS011;46196;52.970;6.954;2023-04-01T08:24:52;19.38;;;8.43;;
60352;SDS011;46196;52.970;6.954;2023-04-01T08:27:41;17.42;;;7.63;;
60352;SDS011;46196;52.970;6.954;2023-04-01T08:30:18;22.45;;;9.80;;
60352;SDS011;46196;52.970;6.954;2023-04-01T08:33:05;18.85;;;8.38;;
60352;SDS011;46196;52.970;6.954;2023-04-01T08:35:42;23.50;;;9.95;;
60352;SDS011;46196;52.970;6.954;2023-04-01T08:38:23;18.67;;;8.93;;
60352;SDS011;46196;52.970;6.954;2023-04-01T08:41:42;20.23;;;9.43;;
60352;SDS011;46196;52.970;6.954;2023-04-01T08:44:18;19.40;;;8.73;;
60352;SDS011;46196;52.970;6.954;2023-04-01T09:01:41;15.82;;;8.57;;
60352;SDS011;46196;52.970;6.954;2023-04-01T09:06:49;17.42;;;8.48;;
60352;SDS011;46196;52.970;6.954;2023-04-01T09:12:42;17.52;;;8.48;;
60352;SDS011;46196;52.970;6.954;2023-04-01T09:15:27;19.58;;;9.18;;
60352;SDS011;46196;52.970;6.954;2023-04-01T09:26:21;17.83;;;9.10;;
60352;SDS011;46196;52.970;6.954;2023-04-01T09:31:59;20.40;;;9.95;;
60352;SDS011;46196;52.970;6.954;2023-04-01T10:21:55;14.10;;;7.15;;
60352;SDS011;46196;52.970;6.954;2023-04-01T10:27:20;12.50;;;7.10;;
60352;SDS011;46196;52.970;6.954;2023-04-01T10:45:59;13.77;;;7.35;;
60352;SDS011;46196;52.970;6.954;2023-04-01T10:56:42;10.73;;;6.80;;
60352;SDS011;46196;52.970;6.954;2023-04-01T11:02:06;8.77;;;5.50;;
60352;SDS011;46196;52.970;6.954;2023-04-01T11:05:23;8.60;;;5.53;;
60352;SDS011;46196;52.970;6.954;2023-04-01T11:18:23;8.57;;;5.00;;
60352;SDS011;46196;52.970;6.954;2023-04-01T11:39:08;7.28;;;4.38;;
60352;SDS011;46196;52.970;6.954;2023-04-01T11:41:45;6.40;;;4.40;;
60352;SDS011;46196;52.970;6.954;2023-04-01T11:44:22;6.18;;;4.00;;
60352;SDS011;46196;52.970;6.954;2023-04-01T12:00:02;5.13;;;3.58;;
60352;SDS011;46196;52.970;6.954;2023-04-01T12:07:53;5.70;;;3.50;;
60352;SDS011;46196;52.970;6.954;2023-04-01T12:10:37;5.72;;;3.90;;
60352;SDS011;46196;52.970;6.954;2023-04-01T12:13:07;5.75;;;3.60;;
60352;SDS011;46196;52.970;6.954;2023-04-01T12:39:08;7.78;;;4.22;;
60352;SDS011;46196;52.970;6.954;2023-04-01T13:22:58;8.07;;;4.88;;
60352;SDS011;46196;52.970;6.954;2023-04-01T13:27:56;5.43;;;4.07;;
60352;SDS011;46196;52.970;6.954;2023-04-01T13:30:33;5.85;;;4.05;;
60352;SDS011;46196;52.970;6.954;2023-04-01T13:43:27;6.72;;;4.50;;
60352;SDS011;46196;52.970;6.954;2023-04-01T14:01:25;6.60;;;4.30;;
60352;SDS011;46196;52.970;6.954;2023-04-01T14:04:01;7.55;;;3.92;;
60352;SDS011;46196;52.970;6.954;2023-04-01T14:12:06;6.75;;;4.00;;
60352;SDS011;46196;52.970;6.954;2023-04-01T14:22:05;4.90;;;3.70;;
60352;SDS011;46196;52.970;6.954;2023-04-01T14:27:25;5.72;;;4.03;;
60352;SDS011;46196;52.970;6.954;2023-04-01T14:51:01;5.28;;;3.65;;
60352;SDS011;46196;52.970;6.954;2023-04-01T14:53:29;5.00;;;3.75;;
60352;SDS011;46196;52.970;6.954;2023-04-01T14:56:00;5.00;;;3.63;;
60352;SDS011;46196;52.970;6.954;2023-04-01T14:58:46;5.07;;;3.72;;
60352;SDS011;46196;52.970;6.954;2023-04-01T15:04:10;5.47;;;3.75;;
60352;SDS011;46196;52.970;6.954;2023-04-01T15:09:29;5.78;;;3.75;;
60352;SDS011;46196;52.970;6.954;2023-04-01T15:12:07;5.25;;;3.83;;
60352;SDS011;46196;52.970;6.954;2023-04-01T15:22:43;5.72;;;3.42;;
60352;SDS011;46196;52.970;6.954;2023-04-01T15:25:27;5.53;;;4.15;;
60352;SDS011;46196;52.970;6.954;2023-04-01T15:30:53;5.47;;;4.30;;
60352;SDS011;46196;52.970;6.954;2023-04-01T15:33:31;5.07;;;3.72;;
60352;SDS011;46196;52.970;6.954;2023-04-01T15:36:12;5.07;;;3.17;;
60352;SDS011;46196;52.970;6.954;2023-04-01T15:38:46;4.85;;;3.63;;
60352;SDS011;46196;52.970;6.954;2023-04-01T15:41:15;5.45;;;3.50;;
60352;SDS011;46196;52.970;6.954;2023-04-01T15:51:37;5.53;;;3.90;;
60352;SDS011;46196;52.970;6.954;2023-04-01T16:02:17;5.43;;;4.00;;
60352;SDS011;46196;52.970;6.954;2023-04-01T16:07:25;6.97;;;3.80;;
60352;SDS011;46196;52.970;6.954;2023-04-01T16:17:35;4.72;;;3.70;;
60352;SDS011;46196;52.970;6.954;2023-04-01T16:22:45;5.75;;;4.05;;
60352;SDS011;46196;52.970;6.954;2023-04-01T16:25:57;6.47;;;4.40;;
60352;SDS011;46196;52.970;6.954;2023-04-01T16:28:16;6.90;;;4.88;;
60352;SDS011;46196;52.970;6.954;2023-04-01T16:33:22;8.02;;;5.28;;
60352;SDS011;46196;52.970;6.954;2023-04-01T16:35:59;8.75;;;5.60;;
60352;SDS011;46196;52.970;6.954;2023-04-01T16:43:48;9.52;;;4.57;;
60352;SDS011;46196;52.970;6.954;2023-04-01T16:51:44;9.10;;;6.20;;
60352;SDS011;46196;52.970;6.954;2023-04-01T16:54:23;10.32;;;6.40;;
60352;SDS011;46196;52.970;6.954;2023-04-01T16:59:27;10.60;;;5.57;;
60352;SDS011;46196;52.970;6.954;2023-04-01T17:04:42;10.88;;;7.30;;
60352;SDS011;46196;52.970;6.954;2023-04-01T17:09:49;11.23;;;5.88;;
60352;SDS011;46196;52.970;6.954;2023-04-01T17:14:50;9.23;;;5.80;;
60352;SDS011;46196;52.970;6.954;2023-04-01T17:17:31;9.40;;;5.78;;
60352;SDS011;46196;52.970;6.954;2023-04-01T17:25:13;11.57;;;6.95;;
60352;SDS011;46196;52.970;6.954;2023-04-01T17:27:56;9.77;;;6.22;;
60352;SDS011;46196;52.970;6.954;2023-04-01T17:30:42;10.13;;;6.85;;
60352;SDS011;46196;52.970;6.954;2023-04-01T17:35:53;11.93;;;6.93;;
60352;SDS011;46196;52.970;6.954;2023-04-01T17:46:05;13.45;;;7.57;;
60352;SDS011;46196;52.970;6.954;2023-04-01T17:56:34;15.27;;;7.97;;
60352;SDS011;46196;52.970;6.954;2023-04-01T17:59:09;16.45;;;8.10;;
60352;SDS011;46196;52.970;6.954;2023-04-01T18:06:45;11.35;;;7.15;;
60352;SDS011;46196;52.970;6.954;2023-04-01T18:14:27;14.75;;;7.72;;
60352;SDS011;46196;52.970;6.954;2023-04-01T18:17:08;16.27;;;8.30;;
60352;SDS011;46196;52.970;6.954;2023-04-01T18:19:42;16.67;;;7.35;;
60352;SDS011;46196;52.970;6.954;2023-04-01T18:22:32;16.75;;;8.85;;
60352;SDS011;46196;52.970;6.954;2023-04-01T18:27:37;14.65;;;8.35;;
60352;SDS011;46196;52.970;6.954;2023-04-01T18:35:21;18.60;;;9.43;;
60352;SDS011;46196;52.970;6.954;2023-04-01T18:40:19;18.58;;;8.63;;
60352;SDS011;46196;52.970;6.954;2023-04-01T18:45:28;16.15;;;8.15;;
60352;SDS011;46196;52.970;6.954;2023-04-01T18:48:03;16.02;;;8.48;;
60352;SDS011;46196;52.970;6.954;2023-04-01T18:53:26;17.05;;;8.65;;
60352;SDS011;46196;52.970;6.954;2023-04-01T18:55:55;17.75;;;8.48;;
60352;SDS011;46196;52.970;6.954;2023-04-01T19:01:02;18.27;;;8.68;;
60352;SDS011;46196;52.970;6.954;2023-04-01T19:06:00;16.95;;;8.82;;
60352;SDS011;46196;52.970;6.954;2023-04-01T19:21:17;21.40;;;8.32;;
60352;SDS011;46196;52.970;6.954;2023-04-01T19:23:53;17.55;;;8.35;;
60352;SDS011;46196;52.970;6.954;2023-04-01T19:26:26;18.85;;;8.98;;
60352;SDS011;46196;52.970;6.954;2023-04-01T19:36:55;16.40;;;9.15;;
60352;SDS011;46196;52.970;6.954;2023-04-01T19:41:57;15.70;;;8.38;;
60352;SDS011;46196;52.970;6.954;2023-04-01T19:44:31;16.52;;;8.68;;
60352;SDS011;46196;52.970;6.954;2023-04-01T19:47:10;18.90;;;9.63;;
60352;SDS011;46196;52.970;6.954;2023-04-01T19:49:50;18.40;;;9.00;;
60352;SDS011;46196;52.970;6.954;2023-04-01T19:52:50;19.60;;;8.93;;
60352;SDS011;46196;52.970;6.954;2023-04-01T19:55:20;16.65;;;9.00;;
60352;SDS011;46196;52.970;6.954;2023-04-01T19:57:51;21.73;;;9.95;;
60352;SDS011;46196;52.970;6.954;2023-04-01T20:02:55;17.25;;;9.77;;
60352;SDS011;46196;52.970;6.954;2023-04-01T20:07:51;24.27;;;9.05;;
60352;SDS011;46196;52.970;6.954;2023-04-01T20:15:45;21.08;;;9.52;;
60352;SDS011;46196;52.970;6.954;2023-04-01T20:20:53;15.75;;;8.23;;
60352;SDS011;46196;52.970;6.954;2023-04-01T20:26:09;17.42;;;9.20;;
60352;SDS011;46196;52.970;6.954;2023-04-01T20:28:38;15.57;;;8.50;;
60352;SDS011;46196;52.970;6.954;2023-04-01T20:31:11;17.48;;;9.27;;
60352;SDS011;46196;52.970;6.954;2023-04-01T20:33:58;20.00;;;10.43;;
60352;SDS011;46196;52.970;6.954;2023-04-01T20:44:07;20.80;;;9.38;;
60352;SDS011;46196;52.970;6.954;2023-04-01T20:49:25;14.68;;;8.95;;
60352;SDS011;46196;52.970;6.954;2023-04-01T20:54:38;18.35;;;8.90;;
60352;SDS011;46196;52.970;6.954;2023-04-01T21:07:32;14.70;;;7.82;;
60352;SDS011;46196;52.970;6.954;2023-04-01T21:21:11;19.63;;;9.00;;
60352;SDS011;46196;52.970;6.954;2023-04-01T21:23:45;15.55;;;9.32;;
60352;SDS011;46196;52.970;6.954;2023-04-01T21:31:15;18.95;;;8.60;;
60352;SDS011;46196;52.970;6.954;2023-04-01T21:39:25;16.60;;;8.10;;
60352;SDS011;46196;52.970;6.954;2023-04-01T21:42:02;13.63;;;8.05;;
60352;SDS011;46196;52.970;6.954;2023-04-01T21:44:35;14.57;;;8.32;;
60352;SDS011;46196;52.970;6.954;2023-04-01T22:10:05;9.77;;;6.32;;
60352;SDS011;46196;52.970;6.954;2023-04-01T22:12:41;20.42;;;7.90;;
60352;SDS011;46196;52.970;6.954;2023-04-01T22:20:31;13.30;;;7.75;;
60352;SDS011;46196;52.970;6.954;2023-04-01T22:23:01;12.20;;;7.10;;
60352;SDS011;46196;52.970;6.954;2023-04-01T22:28:10;16.35;;;7.68;;
60352;SDS011;46196;52.970;6.954;2023-04-01T22:30:43;15.18;;;6.93;;
60352;SDS011;46196;52.970;6.954;2023-04-01T22:33:25;14.73;;;8.52;;
60352;SDS011;46196;52.970;6.954;2023-04-01T22:38:52;13.07;;;6.82;;
60352;SDS011;46196;52.970;6.954;2023-04-01T22:47:22;12.02;;;6.57;;
60352;SDS011;46196;52.970;6.954;2023-04-01T22:56:05;15.60;;;6.93;;
60352;SDS011;46196;52.970;6.954;2023-04-01T22:58:38;15.52;;;7.55;;
60352;SDS011;46196;52.970;6.954;2023-04-01T23:01:12;15.57;;;7.07;;
60352;SDS011;46196;52.970;6.954;2023-04-01T23:03:44;14.80;;;7.22;;
60352;SDS011;46196;52.970;6.954;2023-04-01T23:09:25;10.52;;;5.82;;
60352;SDS011;46196;52.970;6.954;2023-04-01T23:12:13;13.63;;;6.40;;
60352;SDS011;46196;52.970;6.954;2023-04-01T23:20:21;10.48;;;6.00;;
60352;SDS011;46196;52.970;6.954;2023-04-01T23:23:00;15.75;;;6.75;;
60352;SDS011;46196;52.970;6.954;2023-04-01T23:28:43;15.80;;;7.07;;
60352;SDS011;46196;52.970;6.954;2023-04-01T23:36:46;12.70;;;6.85;;
60352;SDS011;46196;52.970;6.954;2023-04-01T23:39:22;13.20;;;6.60;;
60352;SDS011;46196;52.970;6.954;2023-04-01T23:41:50;12.43;;;6.07;;
60352;SDS011;46196;52.970;6.954;2023-04-01T23:44:18;12.63;;;6.20;;
60352;SDS011;46196;52.970;6.954;2023-04-01T23:46:45;13.18;;;7.07;;
60352;SDS011;46196;52.970;6.954;2023-04-01T23:49:21;11.90;;;6.72;;
60352;SDS011;46196;52.970;6.954;2023-04-01T23:51:52;14.52;;;6.95;;
60352;SDS011;46196;52.970;6.954;2023-04-01T23:54:49;16.20;;;6.68;;
60352;SDS011;46196;52.970;6.954;2023-04-01T23:57:18;15.73;;;7.03;;
